Terminal Aerodrome Forecast
Issued by NWS

Current Version | Previous Version | Text Only | Print | Product List | Glossary On
Versions: 1 2 3 4 5 6 7 8 9 10 11 12 13 14 15 16 17
507
FTUS43 KOAX 252320
TAFBFF
TAF
KBFF 252320Z 2600/2624 18009KT P6SM SKC
     FM260600 33017G25KT P6SM SCT040
     FM261100 33018G30KT P6SM BKN040=

USA.gov is the U.S. government's official web portal to all federal, state and local government web resources and services.